createdAt,value
2019-02-10T00:00:56.178Z,8.91
2019-02-10T00:03:24.659Z,8.85
2019-02-10T00:05:53.656Z,8.78
2019-02-10T00:08:22.142Z,8.77
2019-02-10T00:10:51.152Z,8.82
2019-02-10T00:13:28.782Z,8.86
2019-02-10T00:15:59.137Z,8.91
2019-02-10T00:18:28.088Z,8.93
2019-02-10T00:20:57.196Z,8.93
2019-02-10T00:23:26.215Z,8.95
2019-02-10T00:25:55.481Z,8.97
2019-02-10T00:28:23.813Z,8.96
2019-02-10T00:30:52.876Z,8.96
2019-02-10T00:33:22.191Z,8.94
2019-02-10T00:35:51.205Z,8.91
2019-02-10T00:38:20.202Z,8.87
2019-02-10T00:40:49.153Z,8.81
2019-02-10T00:43:18.166Z,8.69
2019-02-10T00:45:47.128Z,8.60
2019-02-10T00:48:15.653Z,8.51
2019-02-10T00:50:44.587Z,8.44
2019-02-10T00:53:14.051Z,8.41
2019-02-10T00:55:43.099Z,8.40
2019-02-10T00:58:12.110Z,8.35
2019-02-10T01:00:41.199Z,8.30
2019-02-10T01:03:10.146Z,8.23
2019-02-10T01:05:38.892Z,8.19
2019-02-10T01:08:07.981Z,8.14
2019-02-10T01:10:36.910Z,8.13
2019-02-10T01:13:05.892Z,8.14
2019-02-10T01:15:34.406Z,8.20
2019-02-10T01:18:02.829Z,8.29
2019-02-10T01:20:31.241Z,8.36
2019-02-10T01:23:00.200Z,8.38
2019-02-10T01:25:28.610Z,8.39
2019-02-10T01:27:57.648Z,8.35
2019-02-10T01:30:26.032Z,8.29
2019-02-10T01:32:55.030Z,8.20
2019-02-10T01:35:23.533Z,8.10
2019-02-10T01:37:52.477Z,8.02
2019-02-10T01:40:20.910Z,7.95
2019-02-10T01:42:49.435Z,7.91
2019-02-10T01:45:17.833Z,7.88
2019-02-10T01:47:46.792Z,7.91
2019-02-10T01:50:15.243Z,7.89
2019-02-10T01:52:43.675Z,7.89
2019-02-10T01:55:13.341Z,7.90
2019-02-10T01:57:41.868Z,7.85
2019-02-10T02:00:12.900Z,7.84
2019-02-10T02:02:41.739Z,7.84
2019-02-10T02:05:10.571Z,7.79
2019-02-10T02:07:39.115Z,7.76
2019-02-10T02:10:12.670Z,7.73
2019-02-10T02:12:41.999Z,7.69
2019-02-10T02:15:15.319Z,7.64
2019-02-10T02:17:43.730Z,7.63
2019-02-10T02:20:13.201Z,7.64
2019-02-10T02:22:41.576Z,7.59
2019-02-10T02:25:12.232Z,7.54
2019-02-10T02:27:41.159Z,7.49
2019-02-10T02:30:11.758Z,7.48
2019-02-10T02:32:40.154Z,7.45
2019-02-10T02:35:08.571Z,7.46
2019-02-10T02:37:36.973Z,7.45
2019-02-10T02:40:10.422Z,7.44
2019-02-10T02:42:39.259Z,7.44
2019-02-10T02:45:12.204Z,7.49
2019-02-10T02:47:41.259Z,7.56
2019-02-10T02:50:12.611Z,7.60
2019-02-10T02:52:41.053Z,7.61
2019-02-10T02:55:10.176Z,7.63
2019-02-10T02:57:38.548Z,7.64
2019-02-10T03:00:09.123Z,7.60
2019-02-10T03:02:37.486Z,7.62
2019-02-10T03:05:10.120Z,7.65
2019-02-10T03:07:38.462Z,7.67
2019-02-10T03:10:08.209Z,7.72
2019-02-10T03:12:36.605Z,7.74
2019-02-10T03:15:06.908Z,7.78
2019-02-10T03:17:35.253Z,7.79
2019-02-10T03:20:05.080Z,7.79
2019-02-10T03:22:33.497Z,7.82
2019-02-10T03:25:02.071Z,7.83
2019-02-10T03:27:30.490Z,7.86
2019-02-10T03:29:58.893Z,7.85
2019-02-10T03:32:27.418Z,7.86
2019-02-10T03:34:55.830Z,7.85
2019-02-10T03:37:27.297Z,7.85
2019-02-10T03:39:54.415Z,7.87
2019-02-10T03:42:22.946Z,7.84
2019-02-10T03:44:51.330Z,7.85
2019-02-10T03:47:21.964Z,7.86
2019-02-10T03:49:50.006Z,7.83
2019-02-10T03:52:18.433Z,7.81
2019-02-10T03:54:46.858Z,7.79
2019-02-10T03:57:15.345Z,7.74
2019-02-10T03:59:43.754Z,7.73
2019-02-10T04:02:12.182Z,7.72
2019-02-10T04:04:40.666Z,7.72
2019-02-10T04:07:09.094Z,7.70
2019-02-10T04:09:37.474Z,7.69
2019-02-10T04:12:05.896Z,7.69
2019-02-10T04:14:34.348Z,7.69
2019-02-10T04:17:02.758Z,7.71
2019-02-10T04:19:31.336Z,7.68
2019-02-10T04:21:59.778Z,7.68
2019-02-10T04:24:28.159Z,7.65
2019-02-10T04:26:56.575Z,7.64
2019-02-10T04:29:24.913Z,7.63
2019-02-10T04:31:53.306Z,7.64
2019-02-10T04:34:21.712Z,7.61
2019-02-10T04:36:50.129Z,7.61
2019-02-10T04:39:18.470Z,7.48
2019-02-10T04:41:46.951Z,7.56
2019-02-10T04:44:15.348Z,7.52
2019-02-10T04:46:43.772Z,7.49
2019-02-10T04:49:12.201Z,7.49
2019-02-10T04:51:40.693Z,7.48
2019-02-10T04:54:09.067Z,7.47
2019-02-10T04:56:37.482Z,7.46
2019-02-10T04:59:05.941Z,7.44
2019-02-10T05:01:34.694Z,7.44
2019-02-10T05:04:03.083Z,7.44
2019-02-10T05:06:31.445Z,7.47
2019-02-10T05:08:59.893Z,7.48
2019-02-10T05:11:28.373Z,7.46
2019-02-10T05:13:56.882Z,7.51
2019-02-10T05:16:25.272Z,7.49
2019-02-10T05:18:53.769Z,7.47
2019-02-10T05:21:22.210Z,7.41
2019-02-10T05:23:50.681Z,7.42
2019-02-10T05:26:19.264Z,7.37
2019-02-10T05:28:47.682Z,7.35
2019-02-10T05:31:16.110Z,7.32
2019-02-10T05:33:44.665Z,7.26
2019-02-10T05:36:13.088Z,7.21
2019-02-10T05:38:41.521Z,7.20
2019-02-10T05:41:09.927Z,7.17
2019-02-10T05:43:38.352Z,7.14
2019-02-10T05:46:06.889Z,7.10
2019-02-10T05:48:35.330Z,7.09
2019-02-10T05:51:04.336Z,7.06
2019-02-10T05:53:32.757Z,7.08
2019-02-10T05:56:01.149Z,7.10
2019-02-10T05:58:29.558Z,7.13
2019-02-10T06:01:17.400Z,7.11
2019-02-10T06:03:45.792Z,7.12
2019-02-10T06:06:14.226Z,7.11
2019-02-10T06:08:42.808Z,7.14
2019-02-10T06:11:11.145Z,7.10
2019-02-10T06:13:39.584Z,7.06
2019-02-10T06:16:08.090Z,7.01
2019-02-10T06:18:36.635Z,6.98
2019-02-10T06:21:05.154Z,6.96
2019-02-10T06:23:33.584Z,6.90
2019-02-10T06:26:02.178Z,6.89
2019-02-10T06:28:30.615Z,6.86
2019-02-10T06:30:59.089Z,6.85
2019-02-10T06:33:27.519Z,6.83
2019-02-10T06:35:56.131Z,6.84
2019-02-10T06:38:24.618Z,6.83
2019-02-10T06:40:52.992Z,6.81
2019-02-10T06:43:21.578Z,6.88
2019-02-10T06:45:50.022Z,6.92
2019-02-10T06:48:18.408Z,6.94
2019-02-10T06:50:46.747Z,6.92
2019-02-10T06:53:15.119Z,6.91
2019-02-10T06:55:43.499Z,6.89
2019-02-10T06:58:11.840Z,6.83
2019-02-10T07:00:44.517Z,6.90
2019-02-10T07:03:43.253Z,6.89
2019-02-10T07:06:13.339Z,6.83
2019-02-10T07:08:41.775Z,6.82
2019-02-10T07:11:10.165Z,6.81
2019-02-10T07:13:41.082Z,6.75
2019-02-10T07:16:38.374Z,6.73
2019-02-10T07:19:43.183Z,6.71
2019-02-10T07:22:34.701Z,6.70
2019-02-10T07:25:17.845Z,6.70
2019-02-10T07:28:06.975Z,6.75
2019-02-10T07:30:50.728Z,6.70
2019-02-10T07:33:24.854Z,6.71
2019-02-10T07:36:17.595Z,6.73
2019-02-10T07:38:52.138Z,6.65
2019-02-10T07:41:21.531Z,6.68
2019-02-10T07:43:59.343Z,6.65
2019-02-10T07:46:32.600Z,6.62
2019-02-10T07:49:04.227Z,6.61
2019-02-10T07:51:41.433Z,6.58
2019-02-10T07:54:21.983Z,6.56
2019-02-10T07:57:11.794Z,6.53
2019-02-10T07:59:43.677Z,6.51
2019-02-10T08:02:29.739Z,6.52
2019-02-10T08:05:04.141Z,6.55
2019-02-10T08:07:47.535Z,6.54
2019-02-10T08:10:25.145Z,6.54
2019-02-10T08:13:15.181Z,6.54
2019-02-10T08:15:49.797Z,6.54
2019-02-10T08:18:34.242Z,6.57
2019-02-10T08:21:27.017Z,6.60
2019-02-10T08:24:10.320Z,6.58
2019-02-10T08:27:09.364Z,6.63
2019-02-10T08:29:46.675Z,6.68
2019-02-10T08:32:18.319Z,6.71
2019-02-10T08:34:52.666Z,6.80
2019-02-10T08:37:50.437Z,6.82
2019-02-10T08:40:43.763Z,6.88
2019-02-10T08:43:33.379Z,6.95
2019-02-10T08:46:27.704Z,7.04
2019-02-10T08:49:32.917Z,7.11
2019-02-10T08:52:23.251Z,7.10
2019-02-10T08:54:51.716Z,7.13
2019-02-10T08:57:20.033Z,7.26
2019-02-10T08:59:48.537Z,7.36
2019-02-10T09:02:16.988Z,7.36
2019-02-10T09:04:45.381Z,7.42
2019-02-10T09:07:15.375Z,7.52
2019-02-10T09:09:43.841Z,7.55
2019-02-10T09:12:12.218Z,7.62
2019-02-10T09:14:40.642Z,7.65
2019-02-10T09:17:09.023Z,7.67
2019-02-10T09:19:37.381Z,7.70
2019-02-10T09:22:05.732Z,7.78
2019-02-10T09:24:34.471Z,7.86
2019-02-10T09:27:02.987Z,7.90
2019-02-10T09:29:31.311Z,7.92
2019-02-10T09:31:59.687Z,7.88
2019-02-10T09:34:28.080Z,7.97
2019-02-10T09:36:56.721Z,8.08
2019-02-10T09:39:25.129Z,8.10
2019-02-10T09:41:53.503Z,8.10
2019-02-10T09:44:21.869Z,8.12
2019-02-10T09:46:50.229Z,8.21
2019-02-10T09:49:18.582Z,8.21
2019-02-10T09:51:46.953Z,8.26
2019-02-10T09:54:15.282Z,8.27
2019-02-10T09:56:43.662Z,8.31
2019-02-10T09:59:12.093Z,8.40
2019-02-10T10:01:40.454Z,8.47
2019-02-10T10:04:09.375Z,8.43
2019-02-10T10:06:38.310Z,8.47
2019-02-10T10:09:06.947Z,8.52
2019-02-10T10:11:35.296Z,8.52
2019-02-10T10:14:03.652Z,8.58
2019-02-10T10:16:32.604Z,8.65
2019-02-10T10:19:01.537Z,8.74
2019-02-10T10:21:30.458Z,8.87
2019-02-10T10:24:01.014Z,8.89
2019-02-10T10:26:30.037Z,8.94
2019-02-10T10:28:58.975Z,8.98
2019-02-10T10:31:27.909Z,9.01
2019-02-10T10:33:56.300Z,9.05
2019-02-10T10:36:25.214Z,9.07
2019-02-10T10:38:54.146Z,9.12
2019-02-10T10:41:23.133Z,9.17
2019-02-10T10:43:52.072Z,9.15
2019-02-10T10:46:20.968Z,9.13
2019-02-10T10:48:49.999Z,9.14
2019-02-10T10:51:18.923Z,9.16
2019-02-10T10:53:47.885Z,9.17
2019-02-10T10:56:16.783Z,9.19
2019-02-10T10:58:45.782Z,9.19
2019-02-10T11:01:14.725Z,9.22
2019-02-10T11:03:43.655Z,9.24
2019-02-10T11:06:12.663Z,9.29
2019-02-10T11:08:41.848Z,9.28
2019-02-10T11:11:10.772Z,9.34
2019-02-10T11:13:39.731Z,9.43
2019-02-10T11:16:08.697Z,9.50
2019-02-10T11:18:38.045Z,9.58
2019-02-10T11:21:07.000Z,9.65
2019-02-10T11:23:35.904Z,9.73
2019-02-10T11:26:04.818Z,9.75
2019-02-10T11:28:33.790Z,9.83
2019-02-10T11:31:03.001Z,9.87
2019-02-10T11:33:31.958Z,9.92
2019-02-10T11:36:00.893Z,9.92
2019-02-10T11:38:29.799Z,9.83
2019-02-10T11:40:58.760Z,9.98
2019-02-10T11:43:27.771Z,10.00
2019-02-10T11:45:56.683Z,10.02
2019-02-10T11:48:25.702Z,10.05
2019-02-10T11:50:54.697Z,10.04
2019-02-10T11:53:23.997Z,10.06
2019-02-10T11:55:52.970Z,10.05
2019-02-10T11:58:21.975Z,10.05
2019-02-10T12:00:50.908Z,10.09
2019-02-10T12:03:19.825Z,10.11
2019-02-10T12:05:48.746Z,10.13
2019-02-10T12:08:17.687Z,10.14
2019-02-10T12:10:46.650Z,10.15
2019-02-10T12:13:15.579Z,10.14
2019-02-10T12:15:44.522Z,10.12
2019-02-10T12:18:13.456Z,10.12
2019-02-10T12:20:42.393Z,10.14
2019-02-10T12:23:11.350Z,10.16
2019-02-10T12:25:40.341Z,10.16
2019-02-10T12:28:09.242Z,10.16
2019-02-10T12:30:38.168Z,10.15
2019-02-10T12:33:07.149Z,10.16
2019-02-10T12:35:38.415Z,10.17
2019-02-10T12:38:07.362Z,10.16
2019-02-10T12:40:36.286Z,10.16
2019-02-10T12:43:05.249Z,10.14
2019-02-10T12:45:34.573Z,10.14
2019-02-10T12:48:03.520Z,10.09
2019-02-10T12:50:32.460Z,10.05
2019-02-10T12:53:01.420Z,10.00
2019-02-10T12:55:30.398Z,9.97
2019-02-10T12:57:59.449Z,9.95
2019-02-10T13:00:28.394Z,9.95
2019-02-10T13:02:57.307Z,9.92
2019-02-10T13:05:26.338Z,9.92
2019-02-10T13:07:55.265Z,9.94
2019-02-10T13:10:24.235Z,9.95
2019-02-10T13:12:53.239Z,9.98
2019-02-10T13:15:22.453Z,9.99
2019-02-10T13:17:51.425Z,9.97
2019-02-10T13:20:20.332Z,9.95
2019-02-10T13:22:49.248Z,9.98
2019-02-10T13:25:18.340Z,9.97
2019-02-10T13:27:47.277Z,9.96
2019-02-10T13:30:17.341Z,9.97
2019-02-10T13:32:46.255Z,9.95
2019-02-10T13:35:15.360Z,9.99
2019-02-10T13:37:44.310Z,10.01
2019-02-10T13:40:16.925Z,10.03
2019-02-10T13:42:46.338Z,10.01
2019-02-10T13:45:15.279Z,10.01
2019-02-10T13:47:44.289Z,10.00
2019-02-10T13:50:17.459Z,9.96
2019-02-10T13:52:46.396Z,9.83
2019-02-10T13:55:16.162Z,9.98
2019-02-10T13:57:45.215Z,9.95
2019-02-10T14:00:24.752Z,9.93
2019-02-10T14:02:54.041Z,9.93
2019-02-10T14:05:22.986Z,9.96
2019-02-10T14:07:51.919Z,10.02
2019-02-10T14:10:25.625Z,10.04
2019-02-10T14:12:51.543Z,10.03
2019-02-10T14:15:20.765Z,10.01
2019-02-10T14:17:49.685Z,10.04
2019-02-10T14:20:19.486Z,10.05
2019-02-10T14:22:48.411Z,10.07
2019-02-10T14:25:17.356Z,10.07
2019-02-10T14:27:46.280Z,10.08
2019-02-10T14:30:22.802Z,10.10
2019-02-10T14:32:51.834Z,10.13
2019-02-10T14:35:20.767Z,10.14
2019-02-10T14:37:49.688Z,10.14
2019-02-10T14:40:18.624Z,10.09
2019-02-10T14:42:47.545Z,10.07
2019-02-10T14:45:16.796Z,10.09
2019-02-10T14:47:45.753Z,10.08
2019-02-10T14:50:17.459Z,10.09
2019-02-10T14:52:46.413Z,10.12
2019-02-10T14:55:15.333Z,10.14
2019-02-10T14:57:44.256Z,10.12
2019-02-10T15:00:16.583Z,10.07
2019-02-10T15:02:45.728Z,10.03
2019-02-10T15:05:14.659Z,9.97
2019-02-10T15:07:43.561Z,9.96
2019-02-10T15:10:17.701Z,9.94
2019-02-10T15:12:46.052Z,9.91
2019-02-10T15:15:15.034Z,9.91
2019-02-10T15:17:43.959Z,9.92
2019-02-10T15:20:13.559Z,9.93
2019-02-10T15:22:42.491Z,9.91
2019-02-10T15:25:12.697Z,9.90
2019-02-10T15:27:41.615Z,9.86
2019-02-10T15:30:14.686Z,9.82
2019-02-10T15:32:43.599Z,9.76
2019-02-10T15:35:12.519Z,9.73
2019-02-10T15:37:41.476Z,9.71
2019-02-10T15:40:11.548Z,9.67
2019-02-10T15:42:40.482Z,9.65
2019-02-10T15:45:15.873Z,9.65
2019-02-10T15:47:44.794Z,9.66
2019-02-10T15:50:14.359Z,9.67
2019-02-10T15:52:43.347Z,9.68
2019-02-10T15:55:13.188Z,9.69
2019-02-10T15:57:42.289Z,9.71
2019-02-10T16:00:23.029Z,9.73
2019-02-10T16:02:51.900Z,9.74
2019-02-10T16:05:20.857Z,9.70
2019-02-10T16:07:49.793Z,9.69
2019-02-10T16:10:18.819Z,9.64
2019-02-10T16:12:47.787Z,9.60
2019-02-10T16:15:16.849Z,9.56
2019-02-10T16:17:45.829Z,9.51
2019-02-10T16:20:15.305Z,9.45
2019-02-10T16:22:44.256Z,9.42
2019-02-10T16:25:13.214Z,9.38
2019-02-10T16:27:42.147Z,9.39
2019-02-10T16:30:13.523Z,9.37
2019-02-10T16:32:49.581Z,9.37
2019-02-10T16:35:13.183Z,9.35
2019-02-10T16:37:42.178Z,9.34
2019-02-10T16:40:14.043Z,9.31
2019-02-10T16:42:42.985Z,9.31
2019-02-10T16:45:12.875Z,9.29
2019-02-10T16:47:41.806Z,9.30
2019-02-10T16:50:13.583Z,9.28
2019-02-10T16:52:42.519Z,9.26
2019-02-10T16:55:16.878Z,9.24
2019-02-10T16:57:45.544Z,9.22
2019-02-10T17:00:15.765Z,9.22
2019-02-10T17:02:44.695Z,9.22
2019-02-10T17:05:13.734Z,9.18
2019-02-10T17:07:42.668Z,9.15
2019-02-10T17:10:18.714Z,9.12
2019-02-10T17:12:47.613Z,9.11
2019-02-10T17:15:16.560Z,9.10
2019-02-10T17:17:45.495Z,9.06
2019-02-10T17:20:15.681Z,9.00
2019-02-10T17:22:44.619Z,8.97
2019-02-10T17:25:19.604Z,8.99
2019-02-10T17:27:47.960Z,9.03
2019-02-10T17:30:16.901Z,9.04
2019-02-10T17:32:45.806Z,9.06
2019-02-10T17:35:15.240Z,9.07
2019-02-10T17:37:44.520Z,9.09
2019-02-10T17:40:45.393Z,9.11
2019-02-10T17:43:14.314Z,9.12
2019-02-10T17:45:43.280Z,9.14
2019-02-10T17:48:12.183Z,9.13
2019-02-10T17:50:41.134Z,9.13
2019-02-10T17:53:10.091Z,9.12
2019-02-10T17:55:39.104Z,9.12
2019-02-10T17:58:08.016Z,9.10
2019-02-10T18:00:38.613Z,9.02
2019-02-10T18:03:13.064Z,8.99
2019-02-10T18:05:42.082Z,9.02
2019-02-10T18:08:10.401Z,9.04
2019-02-10T18:10:39.354Z,9.08
2019-02-10T18:13:08.263Z,9.07
2019-02-10T18:15:55.317Z,9.11
2019-02-10T18:18:28.503Z,9.10
2019-02-10T18:20:59.108Z,9.07
2019-02-10T18:23:29.643Z,9.01
2019-02-10T18:26:00.274Z,8.96
2019-02-10T18:28:30.953Z,8.94
2019-02-10T18:31:01.550Z,8.90
2019-02-10T18:33:35.051Z,8.84
2019-02-10T18:36:17.686Z,8.77
2019-02-10T18:39:03.264Z,8.70
2019-02-10T18:41:39.524Z,8.51
2019-02-10T18:44:18.746Z,8.58
2019-02-10T18:47:00.876Z,8.56
2019-02-10T18:49:47.562Z,8.55
2019-02-10T18:52:30.045Z,8.51
2019-02-10T18:55:09.482Z,8.42
2019-02-10T18:57:56.262Z,8.32
2019-02-10T19:00:26.840Z,8.26
2019-02-10T19:03:00.329Z,8.16
2019-02-10T19:05:46.001Z,8.13
2019-02-10T19:08:32.162Z,8.11
2019-02-10T19:11:02.747Z,8.08
2019-02-10T19:13:32.900Z,8.07
2019-02-10T19:16:03.477Z,8.05
2019-02-10T19:18:42.230Z,8.03
2019-02-10T19:21:12.271Z,8.03
2019-02-10T19:24:01.199Z,8.01
2019-02-10T19:26:43.569Z,7.97
2019-02-10T19:29:13.585Z,7.92
2019-02-10T19:31:43.596Z,7.92
2019-02-10T19:34:25.439Z,7.87
2019-02-10T19:36:55.438Z,7.84
2019-02-10T19:39:28.167Z,7.81
2019-02-10T19:42:12.916Z,7.72
2019-02-10T19:44:51.625Z,7.67
2019-02-10T19:47:37.945Z,7.61
2019-02-10T19:50:08.500Z,7.53
2019-02-10T19:52:39.219Z,7.46
2019-02-10T19:55:22.079Z,7.39
2019-02-10T19:57:58.125Z,7.37
2019-02-10T20:00:30.941Z,7.24
2019-02-10T20:03:17.161Z,7.19
2019-02-10T20:05:47.158Z,7.11
2019-02-10T20:08:23.435Z,7.06
2019-02-10T20:11:09.809Z,6.98
2019-02-10T20:13:42.775Z,6.92
2019-02-10T20:16:18.573Z,6.87
2019-02-10T20:18:51.455Z,6.89
2019-02-10T20:21:39.523Z,6.86
2019-02-10T20:24:09.593Z,6.79
2019-02-10T20:26:55.618Z,6.73
2019-02-10T20:29:34.800Z,6.74
2019-02-10T20:32:10.534Z,6.65
2019-02-10T20:34:40.553Z,6.60
2019-02-10T20:37:28.792Z,6.49
2019-02-10T20:40:04.885Z,6.37
2019-02-10T20:42:37.895Z,6.20
2019-02-10T20:45:08.418Z,6.15
2019-02-10T20:47:47.362Z,6.15
2019-02-10T20:50:33.342Z,6.13
2019-02-10T20:53:09.256Z,6.04
2019-02-10T20:55:45.225Z,5.98
2019-02-10T20:58:30.302Z,5.94
2019-02-10T21:01:02.924Z,5.95
2019-02-10T21:03:44.748Z,5.85
2019-02-10T21:06:14.743Z,5.78
2019-02-10T21:08:44.751Z,5.72
2019-02-10T21:11:14.746Z,5.59
2019-02-10T21:13:47.461Z,5.44
2019-02-10T21:16:35.585Z,5.35
2019-02-10T21:19:11.415Z,5.24
2019-02-10T21:21:57.624Z,5.23
2019-02-10T21:24:27.627Z,5.18
2019-02-10T21:27:17.141Z,5.14
2019-02-10T21:29:53.204Z,5.09
2019-02-10T21:32:29.077Z,5.01
2019-02-10T21:35:01.814Z,4.98
2019-02-10T21:37:37.263Z,4.93
2019-02-10T21:40:18.377Z,4.91
2019-02-10T21:42:51.240Z,4.92
2019-02-10T21:45:21.255Z,4.92
2019-02-10T21:47:53.716Z,4.90
2019-02-10T21:50:22.078Z,4.90
2019-02-10T21:52:50.456Z,4.94
2019-02-10T21:55:19.030Z,4.96
2019-02-10T21:57:47.372Z,5.00
2019-02-10T22:00:15.731Z,5.05
2019-02-10T22:02:44.091Z,5.05
2019-02-10T22:05:12.882Z,5.05
2019-02-10T22:07:41.228Z,5.03
2019-02-10T22:10:11.788Z,5.01
2019-02-10T22:12:40.177Z,4.95
2019-02-10T22:15:10.100Z,4.93
2019-02-10T22:17:38.441Z,4.94
2019-02-10T22:20:11.737Z,4.78
2019-02-10T22:22:40.366Z,5.00
2019-02-10T22:25:10.747Z,5.03
2019-02-10T22:27:39.173Z,5.09
2019-02-10T22:30:15.313Z,5.15
2019-02-10T22:32:43.668Z,5.15
2019-02-10T22:35:12.013Z,5.13
2019-02-10T22:37:40.379Z,5.16
2019-02-10T22:40:11.263Z,5.18
2019-02-10T22:42:45.537Z,5.16
2019-02-10T22:45:12.464Z,5.16
2019-02-10T22:47:40.805Z,5.19
2019-02-10T22:50:13.850Z,5.26
2019-02-10T22:52:43.426Z,5.32
2019-02-10T22:55:11.786Z,5.31
2019-02-10T22:57:41.218Z,5.35
2019-02-10T23:00:17.736Z,5.40
2019-02-10T23:02:46.097Z,5.41
2019-02-10T23:05:14.454Z,5.38
2019-02-10T23:07:42.858Z,5.44
2019-02-10T23:10:11.208Z,5.47
2019-02-10T23:12:39.579Z,5.51
2019-02-10T23:15:07.992Z,5.54
2019-02-10T23:17:36.595Z,5.56
2019-02-10T23:20:05.921Z,5.66
2019-02-10T23:22:34.300Z,5.70
2019-02-10T23:25:02.644Z,5.70
2019-02-10T23:27:30.992Z,5.71
2019-02-10T23:29:59.363Z,5.76
2019-02-10T23:32:27.740Z,5.80
2019-02-10T23:34:56.094Z,5.80
2019-02-10T23:37:24.538Z,5.84
2019-02-10T23:39:52.916Z,5.89
2019-02-10T23:42:21.281Z,5.93
2019-02-10T23:44:49.675Z,5.90
2019-02-10T23:47:18.025Z,5.94
2019-02-10T23:49:46.375Z,5.93
2019-02-10T23:52:14.757Z,5.91
2019-02-10T23:54:43.137Z,5.91
2019-02-10T23:57:11.523Z,5.97
2019-02-10T23:59:39.852Z,5.97
